createdAt,value
2017-11-22T00:01:33.635Z,7.00
2017-11-22T00:04:02.285Z,7.10
2017-11-22T00:06:30.721Z,7.10
2017-11-22T00:08:59.074Z,7.00
2017-11-22T00:11:27.482Z,7.00
2017-11-22T00:13:56.605Z,6.80
2017-11-22T00:16:24.991Z,6.80
2017-11-22T00:18:53.415Z,6.80
2017-11-22T00:21:21.788Z,6.70
2017-11-22T00:23:50.158Z,6.70
2017-11-22T00:26:18.831Z,6.60
2017-11-22T00:28:47.198Z,6.60
2017-11-22T00:31:15.593Z,6.60
2017-11-22T00:33:44.127Z,6.60
2017-11-22T00:36:13.258Z,6.50
2017-11-22T00:38:41.636Z,6.50
2017-11-22T00:41:10.055Z,6.50
2017-11-22T00:43:38.426Z,6.50
2017-11-22T00:46:06.792Z,6.50
2017-11-22T00:48:35.223Z,6.40
2017-11-22T00:51:03.586Z,6.40
2017-11-22T00:53:32.715Z,6.50
2017-11-22T00:56:01.182Z,6.40
2017-11-22T00:58:29.551Z,6.40
2017-11-22T01:00:58.680Z,6.40
2017-11-22T01:03:27.471Z,6.40
2017-11-22T01:05:55.842Z,6.30
2017-11-22T01:08:24.207Z,6.30
2017-11-22T01:10:52.627Z,6.20
2017-11-22T01:13:21.002Z,6.20
2017-11-22T01:15:49.383Z,6.30
2017-11-22T01:18:17.906Z,6.30
2017-11-22T01:20:47.082Z,6.20
2017-11-22T01:23:15.454Z,6.20
2017-11-22T01:25:44.314Z,6.20
2017-11-22T01:28:12.682Z,6.30
2017-11-22T01:30:41.048Z,6.30
2017-11-22T01:33:09.556Z,6.30
2017-11-22T01:35:37.964Z,6.20
2017-11-22T01:38:06.351Z,6.20
2017-11-22T01:40:34.983Z,6.20
2017-11-22T01:43:03.351Z,6.10
2017-11-22T01:45:31.866Z,6.10
2017-11-22T01:48:00.275Z,6.10
2017-11-22T01:50:28.711Z,6.00
2017-11-22T01:52:57.109Z,5.90
2017-11-22T01:55:25.715Z,5.90
2017-11-22T01:57:54.079Z,5.80
2017-11-22T02:00:22.488Z,5.70
2017-11-22T02:02:51.680Z,5.50
2017-11-22T02:05:20.812Z,5.50
2017-11-22T02:07:49.178Z,5.50
2017-11-22T02:10:17.695Z,5.40
2017-11-22T02:12:46.067Z,5.40
2017-11-22T02:15:14.427Z,5.40
2017-11-22T02:17:43.118Z,5.40
2017-11-22T02:20:11.515Z,5.40
2017-11-22T02:22:39.881Z,5.40
2017-11-22T02:25:08.310Z,5.50
2017-11-22T02:27:37.445Z,5.50
2017-11-22T02:30:05.822Z,5.40
2017-11-22T02:32:34.343Z,5.50
2017-11-22T02:35:02.727Z,5.50
2017-11-22T02:37:31.113Z,5.40
2017-11-22T02:39:59.667Z,5.40
2017-11-22T02:42:28.037Z,5.50
2017-11-22T02:44:56.405Z,5.50
2017-11-22T02:47:24.809Z,5.50
2017-11-22T02:49:53.189Z,5.40
2017-11-22T02:52:22.325Z,5.50
2017-11-22T02:54:51.604Z,5.40
2017-11-22T02:57:19.970Z,5.40
2017-11-22T02:59:48.339Z,5.40
2017-11-22T03:02:16.730Z,5.40
2017-11-22T03:04:45.100Z,5.30
2017-11-22T03:07:13.467Z,5.30
2017-11-22T03:09:42.140Z,5.20
2017-11-22T03:12:10.496Z,5.30
2017-11-22T03:14:38.867Z,5.20
2017-11-22T03:17:07.358Z,5.20
2017-11-22T03:19:35.727Z,5.10
2017-11-22T03:22:04.099Z,5.10
2017-11-22T03:24:33.371Z,5.00
2017-11-22T03:27:01.744Z,4.90
2017-11-22T03:29:30.120Z,5.00
2017-11-22T03:31:59.298Z,4.90
2017-11-22T03:34:27.668Z,4.90
2017-11-22T03:36:56.090Z,4.90
2017-11-22T03:39:24.480Z,4.80
2017-11-22T03:41:53.619Z,4.90
2017-11-22T03:44:21.993Z,4.90
2017-11-22T03:46:50.517Z,5.00
2017-11-22T03:49:18.888Z,5.10
2017-11-22T03:51:52.711Z,5.10
2017-11-22T03:54:21.869Z,5.20
2017-11-22T03:56:50.235Z,5.20
2017-11-22T03:59:18.694Z,5.20
2017-11-22T04:01:47.087Z,5.10
2017-11-22T04:07:15.179Z,5.10
2017-11-22T04:09:43.574Z,5.10
2017-11-22T04:12:11.943Z,5.00
2017-11-22T04:14:40.307Z,4.90
2017-11-22T04:17:08.815Z,4.90
2017-11-22T04:19:38.940Z,5.00
2017-11-22T04:22:07.330Z,5.00
2017-11-22T04:24:35.733Z,5.00
2017-11-22T04:27:04.865Z,4.80
2017-11-22T04:29:33.227Z,4.80
2017-11-22T04:32:01.635Z,4.80
2017-11-22T04:34:29.999Z,4.70
2017-11-22T04:36:58.354Z,4.80
2017-11-22T04:39:26.777Z,4.80
2017-11-22T04:41:55.139Z,4.70
2017-11-22T04:44:23.515Z,4.80
2017-11-22T04:46:51.954Z,4.70
2017-11-22T04:49:21.206Z,4.60
2017-11-22T04:51:49.568Z,4.60
2017-11-22T04:54:17.979Z,4.50
2017-11-22T04:56:47.116Z,4.30
2017-11-22T04:59:16.260Z,4.30
2017-11-22T05:01:44.702Z,4.30
2017-11-22T05:04:13.826Z,4.10
2017-11-22T05:06:42.208Z,4.10
2017-11-22T05:09:10.997Z,4.00
2017-11-22T05:11:39.357Z,4.00
2017-11-22T05:14:07.723Z,3.90
2017-11-22T05:16:36.547Z,3.90
2017-11-22T05:19:04.914Z,3.90
2017-11-22T05:21:33.293Z,3.90
2017-11-22T05:24:01.893Z,3.80
2017-11-22T05:26:30.274Z,3.80
2017-11-22T05:28:58.663Z,3.70
2017-11-22T05:31:27.223Z,3.70
2017-11-22T05:33:55.588Z,3.60
2017-11-22T05:36:23.956Z,3.70
2017-11-22T05:38:52.559Z,3.70
2017-11-22T05:41:20.930Z,3.70
2017-11-22T05:43:49.291Z,3.70
2017-11-22T05:46:18.099Z,3.60
2017-11-22T05:48:46.466Z,3.70
2017-11-22T05:51:14.833Z,3.60
2017-11-22T05:53:43.451Z,3.70
2017-11-22T05:56:11.842Z,3.70
2017-11-22T05:58:40.225Z,3.60
2017-11-22T06:01:08.794Z,3.50
2017-11-22T06:03:37.164Z,3.40
2017-11-22T06:06:05.545Z,3.30
2017-11-22T06:08:34.122Z,3.30
2017-11-22T06:11:02.479Z,3.30
2017-11-22T06:13:30.845Z,3.30
2017-11-22T06:16:00.489Z,3.30
2017-11-22T06:18:28.854Z,3.30
2017-11-22T06:20:57.220Z,3.30
2017-11-22T06:23:25.829Z,3.40
2017-11-22T06:25:54.195Z,3.40
2017-11-22T06:28:22.563Z,3.60
2017-11-22T06:30:51.181Z,3.60
2017-11-22T06:33:19.555Z,3.70
2017-11-22T06:35:47.941Z,3.70
2017-11-22T06:38:16.351Z,3.70
2017-11-22T06:40:44.712Z,3.80
2017-11-22T06:43:13.078Z,3.90
2017-11-22T06:45:41.513Z,3.90
2017-11-22T06:48:09.875Z,4.00
2017-11-22T06:50:39.034Z,4.10
2017-11-22T06:53:07.474Z,4.10
2017-11-22T06:55:35.854Z,4.30
2017-11-22T06:58:04.225Z,4.50
2017-11-22T07:00:32.831Z,4.70
2017-11-22T07:03:01.223Z,4.90
2017-11-22T07:05:29.606Z,5.10
2017-11-22T07:07:58.488Z,5.60
2017-11-22T07:10:26.890Z,6.10
2017-11-22T07:12:54.589Z,6.40
2017-11-22T07:15:23.783Z,7.10
2017-11-22T07:17:54.779Z,7.70
2017-11-22T07:20:23.168Z,7.70
2017-11-22T07:22:51.565Z,8.30
2017-11-22T07:25:20.714Z,10.00
2017-11-22T07:27:49.300Z,10.00
2017-11-22T07:30:17.672Z,10.60
2017-11-22T07:32:46.051Z,10.80
2017-11-22T07:35:14.948Z,11.50
2017-11-22T07:37:48.789Z,12.10
2017-11-22T07:40:17.439Z,12.20
2017-11-22T07:42:45.816Z,12.10
2017-11-22T07:45:14.185Z,12.30
2017-11-22T07:47:42.875Z,12.70
2017-11-22T07:50:11.266Z,13.30
2017-11-22T07:52:39.652Z,14.00
2017-11-22T07:55:08.152Z,14.30
2017-11-22T07:57:39.473Z,14.40
2017-11-22T08:00:07.911Z,14.00
2017-11-22T08:02:42.258Z,14.30
2017-11-22T08:05:10.912Z,14.30
2017-11-22T08:07:40.054Z,14.90
2017-11-22T08:12:43.008Z,15.50
2017-11-22T08:15:12.196Z,15.90
2017-11-22T08:17:41.352Z,16.30
2017-11-22T08:20:12.748Z,16.20
2017-11-22T08:22:41.900Z,15.40
2017-11-22T08:25:14.232Z,15.30
2017-11-22T08:27:42.627Z,16.00
2017-11-22T08:30:11.014Z,16.80
2017-11-22T08:32:39.483Z,16.80
2017-11-22T08:35:07.899Z,17.20
2017-11-22T08:37:36.283Z,17.30
2017-11-22T08:40:04.956Z,17.40
2017-11-22T08:42:39.784Z,17.60
2017-11-22T08:45:08.458Z,18.40
2017-11-22T08:47:36.848Z,19.10
2017-11-22T08:50:05.236Z,19.50
2017-11-22T08:52:33.905Z,19.10
2017-11-22T08:55:07.443Z,19.40
2017-11-22T08:57:41.364Z,19.80
2017-11-22T09:00:15.896Z,20.20
2017-11-22T09:02:45.107Z,20.20
2017-11-22T09:05:13.478Z,20.60
2017-11-22T09:07:41.851Z,20.00
2017-11-22T09:10:10.347Z,20.60
2017-11-22T09:12:44.056Z,20.50
2017-11-22T09:15:12.584Z,19.90
2017-11-22T09:17:41.732Z,21.90
2017-11-22T09:20:10.108Z,21.80
2017-11-22T09:22:38.678Z,22.50
2017-11-22T09:25:07.056Z,22.50
2017-11-22T09:27:40.920Z,23.10
2017-11-22T09:30:13.293Z,22.30
2017-11-22T09:32:42.164Z,23.00
2017-11-22T09:35:16.121Z,23.30
2017-11-22T09:37:45.504Z,21.70
2017-11-22T09:40:13.897Z,21.70
2017-11-22T09:42:43.051Z,21.60
2017-11-22T09:45:11.504Z,21.60
2017-11-22T09:47:39.881Z,21.30
2017-11-22T09:50:08.257Z,20.80
2017-11-22T09:52:37.112Z,21.00
2017-11-22T09:55:05.516Z,20.90
2017-11-22T09:57:33.913Z,21.80
2017-11-22T10:00:02.443Z,21.60
2017-11-22T10:02:30.823Z,22.30
2017-11-22T10:04:59.984Z,21.60
2017-11-22T10:07:28.395Z,21.60
2017-11-22T10:09:56.767Z,21.50
2017-11-22T10:12:25.138Z,21.60
2017-11-22T10:14:53.795Z,21.90
2017-11-22T10:17:27.783Z,20.80
2017-11-22T10:20:01.854Z,20.30
2017-11-22T10:22:30.243Z,20.90
2017-11-22T10:25:04.117Z,21.30
2017-11-22T10:27:32.488Z,21.20
2017-11-22T10:30:15.791Z,22.00
2017-11-22T10:32:50.726Z,21.70
2017-11-22T10:35:19.168Z,22.40
2017-11-22T10:37:47.535Z,22.30
2017-11-22T10:40:15.911Z,22.80
2017-11-22T10:42:44.570Z,22.70
2017-11-22T10:45:12.954Z,22.90
2017-11-22T10:47:41.327Z,21.60
2017-11-22T10:50:09.833Z,20.80
2017-11-22T10:52:38.211Z,20.10
2017-11-22T10:55:06.591Z,20.10
2017-11-22T10:57:35.248Z,20.20
2017-11-22T11:00:03.628Z,20.10
2017-11-22T11:02:32.035Z,19.90
2017-11-22T11:05:00.731Z,19.40
2017-11-22T11:07:29.108Z,19.40
2017-11-22T11:09:57.487Z,20.70
2017-11-22T11:12:26.899Z,21.50
2017-11-22T11:14:56.052Z,21.50
2017-11-22T11:17:24.461Z,21.40
2017-11-22T11:19:53.117Z,21.50
2017-11-22T11:22:21.496Z,21.40
2017-11-22T11:24:49.883Z,21.90
2017-11-22T11:27:18.303Z,22.00
2017-11-22T11:29:47.445Z,21.70
2017-11-22T11:32:16.646Z,21.50
2017-11-22T11:34:45.345Z,21.50
2017-11-22T11:37:13.774Z,21.90
2017-11-22T11:39:42.152Z,23.00
2017-11-22T11:42:10.973Z,22.10
2017-11-22T11:44:39.363Z,22.00
2017-11-22T11:47:07.741Z,20.90
2017-11-22T11:49:36.519Z,20.80
2017-11-22T11:52:04.892Z,21.40
2017-11-22T11:54:33.270Z,21.60
2017-11-22T11:57:01.967Z,22.10
2017-11-22T11:59:30.344Z,21.80
2017-11-22T12:01:58.717Z,22.10
2017-11-22T12:04:27.149Z,22.20
2017-11-22T12:06:56.301Z,21.80
2017-11-22T12:09:24.676Z,21.80
2017-11-22T12:11:53.168Z,21.20
2017-11-22T12:14:22.299Z,20.80
2017-11-22T12:16:51.439Z,20.60
2017-11-22T12:19:20.176Z,20.60
2017-11-22T12:21:54.203Z,20.30
2017-11-22T12:24:23.646Z,20.10
2017-11-22T12:26:52.024Z,20.10
2017-11-22T12:29:20.402Z,20.10
2017-11-22T12:31:48.984Z,19.70
2017-11-22T12:34:17.368Z,20.30
2017-11-22T12:36:45.741Z,21.10
2017-11-22T12:39:14.537Z,21.10
2017-11-22T12:41:42.920Z,21.20
2017-11-22T12:44:11.313Z,20.60
2017-11-22T12:46:39.809Z,20.70
2017-11-22T12:49:08.186Z,21.80
2017-11-22T12:51:36.559Z,21.60
2017-11-22T12:54:05.113Z,21.40
2017-11-22T12:56:33.592Z,21.20
2017-11-22T12:59:01.992Z,20.90
2017-11-22T13:01:30.496Z,20.50
2017-11-22T13:03:58.863Z,20.70
2017-11-22T13:06:27.255Z,20.60
2017-11-22T13:08:56.713Z,19.70
2017-11-22T13:11:25.891Z,19.70
2017-11-22T13:13:54.269Z,19.70
2017-11-22T13:16:22.704Z,19.20
2017-11-22T13:18:51.151Z,18.60
2017-11-22T13:21:19.552Z,18.10
2017-11-22T13:23:48.403Z,17.70
2017-11-22T13:26:16.797Z,17.30
2017-11-22T13:28:45.190Z,17.30
2017-11-22T13:31:13.637Z,17.30
2017-11-22T13:33:42.037Z,17.10
2017-11-22T13:36:10.427Z,17.00
2017-11-22T13:38:39.040Z,17.00
2017-11-22T13:41:08.211Z,16.80
2017-11-22T13:43:36.599Z,16.80
2017-11-22T13:46:05.009Z,16.70
2017-11-22T13:48:34.156Z,16.40
2017-11-22T13:51:02.545Z,16.40
2017-11-22T13:53:31.317Z,16.30
2017-11-22T13:55:59.740Z,16.20
2017-11-22T13:58:28.891Z,16.10
2017-11-22T14:00:57.558Z,16.10
2017-11-22T14:03:25.975Z,16.10
2017-11-22T14:05:54.360Z,16.00
2017-11-22T14:08:23.557Z,15.80
2017-11-22T14:10:51.947Z,15.80
2017-11-22T14:13:20.336Z,15.80
2017-11-22T14:15:49.632Z,15.60
2017-11-22T14:18:18.780Z,15.50
2017-11-22T14:20:47.173Z,15.50
2017-11-22T14:23:15.605Z,15.40
2017-11-22T14:25:44.011Z,15.30
2017-11-22T14:28:12.392Z,15.20
2017-11-22T14:30:40.910Z,15.10
2017-11-22T14:33:09.295Z,15.00
2017-11-22T14:35:37.684Z,14.90
2017-11-22T14:38:07.182Z,14.90
2017-11-22T14:40:35.581Z,14.90
2017-11-22T14:43:03.968Z,14.90
2017-11-22T14:45:32.415Z,14.80
2017-11-22T14:48:00.797Z,14.70
2017-11-22T14:50:29.183Z,14.70
2017-11-22T14:52:58.821Z,14.60
2017-11-22T14:55:27.219Z,14.60
2017-11-22T14:57:55.607Z,14.60
2017-11-22T15:00:24.054Z,14.60
2017-11-22T15:02:52.427Z,14.60
2017-11-22T15:05:20.818Z,14.50
2017-11-22T15:07:49.343Z,14.40
2017-11-22T15:10:17.726Z,14.40
2017-11-22T15:12:46.116Z,14.30
2017-11-22T15:15:14.568Z,14.10
2017-11-22T15:17:42.956Z,14.10
2017-11-22T15:20:11.335Z,13.90
2017-11-22T15:22:39.860Z,13.80
2017-11-22T15:25:08.302Z,13.80
2017-11-22T15:27:36.694Z,13.60
2017-11-22T15:30:05.201Z,13.50
2017-11-22T15:32:33.588Z,13.40
2017-11-22T15:35:02.025Z,13.30
2017-11-22T15:37:30.440Z,13.20
2017-11-22T15:39:58.819Z,13.00
2017-11-22T15:42:27.205Z,13.00
2017-11-22T15:44:55.906Z,12.90
2017-11-22T15:47:24.300Z,12.90
2017-11-22T15:49:52.699Z,12.80
2017-11-22T15:52:21.128Z,12.70
2017-11-22T15:54:49.491Z,12.50
2017-11-22T15:57:17.871Z,12.40
2017-11-22T15:59:46.438Z,12.30
2017-11-22T16:02:15.580Z,12.10
2017-11-22T16:04:43.950Z,12.10
2017-11-22T16:07:12.501Z,12.10
2017-11-22T16:09:41.766Z,12.20
2017-11-22T16:12:10.152Z,12.20
2017-11-22T16:14:38.663Z,12.10
2017-11-22T16:17:07.803Z,11.80
2017-11-22T16:19:36.183Z,11.80
2017-11-22T16:22:04.763Z,11.80
2017-11-22T16:24:33.146Z,11.80
2017-11-22T16:27:01.512Z,11.50
2017-11-22T16:29:30.312Z,11.20
2017-11-22T16:31:58.686Z,11.00
2017-11-22T16:34:27.057Z,11.00
2017-11-22T16:36:55.495Z,10.80
2017-11-22T16:39:24.653Z,10.50
2017-11-22T16:41:53.193Z,10.50
2017-11-22T16:44:22.821Z,10.40
2017-11-22T16:46:51.214Z,10.30
2017-11-22T16:49:19.683Z,10.20
2017-11-22T16:51:48.377Z,10.00
2017-11-22T16:54:16.767Z,10.00
2017-11-22T16:56:45.144Z,9.80
2017-11-22T16:59:13.719Z,9.70
2017-11-22T17:01:42.121Z,9.50
2017-11-22T17:04:10.497Z,9.40
2017-11-22T17:06:38.906Z,9.20
2017-11-22T17:09:08.056Z,9.00
2017-11-22T17:11:36.438Z,9.00
2017-11-22T17:14:04.873Z,8.90
2017-11-22T17:16:33.243Z,8.80
2017-11-22T17:19:01.692Z,8.80
2017-11-22T17:21:30.139Z,8.60
2017-11-22T17:23:58.548Z,8.50
2017-11-22T17:26:26.928Z,8.40
2017-11-22T17:28:55.646Z,8.40
2017-11-22T17:31:24.034Z,8.30
2017-11-22T17:33:52.433Z,8.30
2017-11-22T17:36:20.942Z,8.20
2017-11-22T17:38:49.319Z,8.10
2017-11-22T17:41:17.700Z,8.10
2017-11-22T17:43:46.384Z,7.90
2017-11-22T17:46:14.750Z,7.90
2017-11-22T17:48:43.124Z,7.80
2017-11-22T17:51:11.634Z,7.80
2017-11-22T17:53:40.023Z,7.70
2017-11-22T17:56:08.407Z,7.60
2017-11-22T17:58:36.926Z,7.50
2017-11-22T18:01:05.299Z,7.60
2017-11-22T18:03:33.672Z,7.60
2017-11-22T18:06:02.431Z,7.50
2017-11-22T18:08:30.799Z,7.60
2017-11-22T18:10:59.182Z,7.60
2017-11-22T18:13:27.824Z,7.50
2017-11-22T18:15:56.340Z,7.50
2017-11-22T18:18:24.767Z,7.60
2017-11-22T18:20:53.476Z,7.70
2017-11-22T18:23:21.924Z,7.70
2017-11-22T18:25:50.289Z,7.50
2017-11-22T18:28:19.932Z,7.20
2017-11-22T18:30:48.506Z,7.20
2017-11-22T18:33:16.919Z,7.10
2017-11-22T18:35:45.554Z,6.90
2017-11-22T18:38:14.186Z,6.90
2017-11-22T18:40:42.612Z,6.90
2017-11-22T18:43:12.427Z,6.70
2017-11-22T18:45:42.060Z,6.60
2017-11-22T18:48:10.660Z,6.60
2017-11-22T18:50:39.674Z,6.60
2017-11-22T18:53:08.419Z,6.50
2017-11-22T18:55:37.051Z,6.50
2017-11-22T18:58:05.925Z,6.40
2017-11-22T19:00:34.308Z,6.40
2017-11-22T19:03:03.025Z,6.30
2017-11-22T19:05:32.354Z,6.30
2017-11-22T19:08:00.793Z,6.30
2017-11-22T19:10:30.345Z,6.20
2017-11-22T19:12:59.042Z,6.20
2017-11-22T19:15:27.669Z,6.20
2017-11-22T19:17:56.680Z,6.20
2017-11-22T19:20:25.870Z,6.00
2017-11-22T19:22:55.026Z,5.90
2017-11-22T19:25:24.149Z,5.90
2017-11-22T19:27:53.112Z,5.90
2017-11-22T19:30:22.028Z,5.90
2017-11-22T19:32:50.966Z,5.80
2017-11-22T19:35:19.427Z,5.70
2017-11-22T19:37:48.584Z,5.60
2017-11-22T19:40:17.093Z,5.60
2017-11-22T19:42:46.560Z,5.40
2017-11-22T19:45:14.942Z,5.40
2017-11-22T19:47:43.310Z,5.40
2017-11-22T19:50:12.175Z,5.40
2017-11-22T19:52:40.576Z,5.30
2017-11-22T19:55:09.021Z,5.30
2017-11-22T19:57:38.829Z,5.30
2017-11-22T20:00:07.968Z,5.30
2017-11-22T20:02:36.365Z,5.20
2017-11-22T20:05:05.591Z,5.20
2017-11-22T20:10:49.213Z,5.10
2017-11-22T20:13:17.906Z,5.10
2017-11-22T20:15:46.470Z,5.10
2017-11-22T20:18:15.351Z,5.00
2017-11-22T20:20:43.732Z,5.10
2017-11-22T20:23:12.121Z,5.00
2017-11-22T20:25:40.889Z,5.00
2017-11-22T20:28:09.488Z,5.00
2017-11-22T20:30:38.309Z,5.00
2017-11-22T20:33:07.485Z,4.90
2017-11-22T20:35:37.233Z,4.80
2017-11-22T20:38:05.754Z,4.80
2017-11-22T20:40:34.921Z,4.80
2017-11-22T20:43:03.364Z,4.80
2017-11-22T20:45:32.036Z,4.70
2017-11-22T20:48:01.059Z,4.70
2017-11-22T20:50:30.225Z,4.60
2017-11-22T20:52:58.611Z,4.60
2017-11-22T20:55:27.255Z,4.60
2017-11-22T20:57:55.638Z,4.60
2017-11-22T21:00:24.038Z,4.50
2017-11-22T21:02:52.468Z,4.50
2017-11-22T21:05:21.609Z,4.40
2017-11-22T21:07:49.999Z,4.40
2017-11-22T21:10:19.279Z,4.40
2017-11-22T21:12:47.782Z,4.40
2017-11-22T21:15:16.980Z,4.40
2017-11-22T21:17:46.268Z,4.30
2017-11-22T21:20:14.714Z,4.30
2017-11-22T21:22:43.278Z,4.30
2017-11-22T21:25:12.503Z,4.20
2017-11-22T21:27:40.988Z,4.20
2017-11-22T21:30:09.408Z,4.30
2017-11-22T21:32:37.976Z,4.20
2017-11-22T21:35:06.772Z,4.10
2017-11-22T21:37:36.177Z,4.10
2017-11-22T21:40:05.919Z,4.10
2017-11-22T21:42:34.495Z,4.00
2017-11-22T21:45:03.029Z,4.10
2017-11-22T21:47:31.796Z,4.20
2017-11-22T21:50:00.500Z,4.30
2017-11-22T21:52:29.064Z,4.40
2017-11-22T21:54:57.898Z,4.50
2017-11-22T21:57:27.283Z,4.40
2017-11-22T21:59:56.928Z,4.40
2017-11-22T22:02:26.253Z,4.40
2017-11-22T22:04:56.229Z,4.30
2017-11-22T22:07:25.164Z,4.30
2017-11-22T22:09:53.559Z,4.40
2017-11-22T22:12:21.997Z,4.40
2017-11-22T22:14:50.368Z,4.30
2017-11-22T22:17:18.778Z,4.30
2017-11-22T22:19:47.287Z,4.30
2017-11-22T22:22:15.679Z,4.30
2017-11-22T22:24:44.058Z,4.20
2017-11-22T22:27:12.485Z,4.20
2017-11-22T22:29:41.628Z,4.00
2017-11-22T22:32:10.008Z,4.00
2017-11-22T22:34:38.689Z,3.80
2017-11-22T22:37:07.060Z,3.80
2017-11-22T22:39:35.436Z,3.70
2017-11-22T22:42:04.036Z,3.70
2017-11-22T22:44:32.441Z,3.70
2017-11-22T22:47:00.827Z,3.60
2017-11-22T22:49:29.322Z,3.70
2017-11-22T22:51:58.459Z,3.50
2017-11-22T22:54:26.827Z,3.50
2017-11-22T22:56:55.531Z,3.50
2017-11-22T22:59:23.964Z,3.50
2017-11-22T23:01:53.104Z,3.40
2017-11-22T23:04:21.516Z,3.40
2017-11-22T23:06:49.896Z,3.20
2017-11-22T23:09:18.349Z,3.20
2017-11-22T23:11:46.848Z,3.20
2017-11-22T23:14:15.243Z,3.20
2017-11-22T23:16:43.620Z,3.20
2017-11-22T23:19:12.317Z,3.20
2017-11-22T23:21:41.457Z,3.10
2017-11-22T23:24:09.826Z,3.10
2017-11-22T23:26:38.429Z,3.10
2017-11-22T23:29:06.803Z,3.10
2017-11-22T23:31:35.179Z,3.10
2017-11-22T23:34:03.675Z,3.20
2017-11-22T23:36:32.039Z,3.20
2017-11-22T23:39:00.477Z,3.20
2017-11-22T23:41:29.765Z,3.10
2017-11-22T23:43:58.136Z,3.10
2017-11-22T23:46:26.506Z,3.10
2017-11-22T23:48:55.011Z,3.10
2017-11-22T23:51:24.199Z,3.10
2017-11-22T23:53:52.575Z,3.10
2017-11-22T23:56:21.215Z,3.10
2017-11-22T23:58:49.595Z,3.00
